<?xml version="1.0" encoding="UTF-8"?>
<gpx xmlns="http://www.topografix.com/GPX/1/1" creator="ape@map" version="1.1" xmlns:xsi="http://www.w3.org/2001/XMLSchema-instance" xmlns:dklgpx="http://na.na.na/GPX/1/1" xsi:schemaLocation="http://www.topografix.com/GPX/1/1 http://www.topografix.com/GPX/1/1/gpx.xsd">
<metadata>
   <name>ape@map my Phone my Guide</name>
</metadata>
<trk>
   <name>20_04_2009_13_39_17lauf</name>
   <trkseg>
      <trkpt lon="13.092638692537" lat="47.859937125233">
          <ele>490</ele>
          <time>2009-04-20T11:39:45Z</time>
      </trkpt>
      <trkpt lon="13.092641961478" lat="47.859933688654">
          <ele>490</ele>
          <time>2009-04-20T11:40:45Z</time>
      </trkpt>
      <trkpt lon="13.092643218763" lat="47.859931676998">
          <ele>490</ele>
          <time>2009-04-20T11:40:51Z</time>
      </trkpt>
      <trkpt lon="13.092792416583" lat="47.860735920303">
          <ele>491</ele>
          <time>2009-04-20T11:41:08Z</time>
      </trkpt>
      <trkpt lon="13.0922428154" lat="47.859831261836">
          <ele>513</ele>
          <time>2009-04-20T11:41:12Z</time>
      </trkpt>
      <trkpt lon="13.092198978063" lat="47.859352822984">
          <ele>524</ele>
          <time>2009-04-20T11:41:40Z</time>
      </trkpt>
      <trkpt lon="13.092005775268" lat="47.858911013035">
          <ele>525</ele>
          <time>2009-04-20T11:42:08Z</time>
      </trkpt>
      <trkpt lon="13.091468663116" lat="47.858617311259">
          <ele>524</ele>
          <time>2009-04-20T11:42:35Z</time>
      </trkpt>
      <trkpt lon="13.090863657574" lat="47.858364596974">
          <ele>524</ele>
          <time>2009-04-20T11:42:58Z</time>
      </trkpt>
      <trkpt lon="13.090312547649" lat="47.858062680936">
          <ele>524</ele>
          <time>2009-04-20T11:43:22Z</time>
      </trkpt>
      <trkpt lon="13.089619029243" lat="47.857946004888">
          <ele>524</ele>
          <time>2009-04-20T11:43:45Z</time>
      </trkpt>
      <trkpt lon="13.088924002095" lat="47.857838297473">
          <ele>524</ele>
          <time>2009-04-20T11:44:04Z</time>
      </trkpt>
      <trkpt lon="13.08822872349" lat="47.857993530261">
          <ele>524</ele>
          <time>2009-04-20T11:44:32Z</time>
      </trkpt>
      <trkpt lon="13.087941140501" lat="47.858413714908">
          <ele>524</ele>
          <time>2009-04-20T11:44:48Z</time>
      </trkpt>
      <trkpt lon="13.087540988595" lat="47.858818728316">
          <ele>524</ele>
          <time>2009-04-20T11:45:14Z</time>
      </trkpt>
      <trkpt lon="13.087805353721" lat="47.85928526487">
          <ele>521</ele>
          <time>2009-04-20T11:45:44Z</time>
      </trkpt>
      <trkpt lon="13.088254539742" lat="47.859655996307">
          <ele>503</ele>
          <time>2009-04-20T11:46:17Z</time>
      </trkpt>
      <trkpt lon="13.088756112638" lat="47.860026392468">
          <ele>497</ele>
          <time>2009-04-20T11:47:08Z</time>
      </trkpt>
      <trkpt lon="13.08927143185" lat="47.860391088937">
          <ele>506</ele>
          <time>2009-04-20T11:47:35Z</time>
      </trkpt>
      <trkpt lon="13.089512327656" lat="47.860853602179">
          <ele>506</ele>
          <time>2009-04-20T11:47:50Z</time>
      </trkpt>
      <trkpt lon="13.089877527039" lat="47.861329945556">
          <ele>507</ele>
          <time>2009-04-20T11:48:05Z</time>
      </trkpt>
      <trkpt lon="13.090353116045" lat="47.861727834349">
          <ele>510</ele>
          <time>2009-04-20T11:48:19Z</time>
      </trkpt>
      <trkpt lon="13.090934736086" lat="47.861986499783">
          <ele>515</ele>
          <time>2009-04-20T11:48:43Z</time>
      </trkpt>
      <trkpt lon="13.091413426395" lat="47.862316411367">
          <ele>507</ele>
          <time>2009-04-20T11:49:10Z</time>
      </trkpt>
      <trkpt lon="13.092115578158" lat="47.862521767917">
          <ele>488</ele>
          <time>2009-04-20T11:49:42Z</time>
      </trkpt>
      <trkpt lon="13.092724607012" lat="47.86274615138">
          <ele>508</ele>
          <time>2009-04-20T11:50:15Z</time>
      </trkpt>
      <trkpt lon="13.092762409381" lat="47.863204892767">
          <ele>526</ele>
          <time>2009-04-20T11:50:50Z</time>
      </trkpt>
      <trkpt lon="13.092831979151" lat="47.863668747113">
          <ele>554</ele>
          <time>2009-04-20T11:51:35Z</time>
      </trkpt>
      <trkpt lon="13.092669621748" lat="47.864121872627">
          <ele>548</ele>
          <time>2009-04-20T11:52:05Z</time>
      </trkpt>
      <trkpt lon="13.092815215351" lat="47.86459268395">
          <ele>550</ele>
          <time>2009-04-20T11:52:28Z</time>
      </trkpt>
      <trkpt lon="13.093140097795" lat="47.865028291293">
          <ele>543</ele>
          <time>2009-04-20T11:52:50Z</time>
      </trkpt>
      <trkpt lon="13.093281835724" lat="47.865490720716">
          <ele>539</ele>
          <time>2009-04-20T11:53:14Z</time>
      </trkpt>
      <trkpt lon="13.093401445437" lat="47.865975781269">
          <ele>541</ele>
          <time>2009-04-20T11:53:39Z</time>
      </trkpt>
      <trkpt lon="13.093691123901" lat="47.866431169896">
          <ele>551</ele>
          <time>2009-04-20T11:54:07Z</time>
      </trkpt>
      <trkpt lon="13.094114912765" lat="47.866840458073">
          <ele>553</ele>
          <time>2009-04-20T11:54:35Z</time>
      </trkpt>
      <trkpt lon="13.094518585069" lat="47.867218900858">
          <ele>550</ele>
          <time>2009-04-20T11:54:59Z</time>
      </trkpt>
      <trkpt lon="13.094972129678" lat="47.86759927148">
          <ele>551</ele>
          <time>2009-04-20T11:55:25Z</time>
      </trkpt>
      <trkpt lon="13.09551594735" lat="47.867923902467">
          <ele>544</ele>
          <time>2009-04-20T11:55:53Z</time>
      </trkpt>
      <trkpt lon="13.096120617616" lat="47.868139820211">
          <ele>546</ele>
          <time>2009-04-20T11:56:21Z</time>
      </trkpt>
      <trkpt lon="13.09667767869" lat="47.868424218078">
          <ele>542</ele>
          <time>2009-04-20T11:56:53Z</time>
      </trkpt>
      <trkpt lon="13.097345883758" lat="47.868530919665">
          <ele>540</ele>
          <time>2009-04-20T11:57:20Z</time>
      </trkpt>
      <trkpt lon="13.097952230404" lat="47.868766283417">
          <ele>546</ele>
          <time>2009-04-20T11:57:55Z</time>
      </trkpt>
      <trkpt lon="13.098445756676" lat="47.869103319616">
          <ele>558</ele>
          <time>2009-04-20T11:58:33Z</time>
      </trkpt>
      <trkpt lon="13.098947413391" lat="47.869442283652">
          <ele>562</ele>
          <time>2009-04-20T11:59:03Z</time>
      </trkpt>
      <trkpt lon="13.099415877782" lat="47.869785773914">
          <ele>566</ele>
          <time>2009-04-20T11:59:27Z</time>
      </trkpt>
      <trkpt lon="13.099862130138" lat="47.870144435415">
          <ele>576</ele>
          <time>2009-04-20T11:59:57Z</time>
      </trkpt>
      <trkpt lon="13.100293546531" lat="47.870530505729">
          <ele>569</ele>
          <time>2009-04-20T12:00:35Z</time>
      </trkpt>
      <trkpt lon="13.100529916111" lat="47.870962676493">
          <ele>538</ele>
          <time>2009-04-20T12:01:01Z</time>
      </trkpt>
      <trkpt lon="13.101144477019" lat="47.871172140174">
          <ele>549</ele>
          <time>2009-04-20T12:01:24Z</time>
      </trkpt>
      <trkpt lon="13.101783261618" lat="47.871411527238">
          <ele>558</ele>
          <time>2009-04-20T12:01:55Z</time>
      </trkpt>
      <trkpt lon="13.102387848065" lat="47.871641945669">
          <ele>563</ele>
          <time>2009-04-20T12:02:26Z</time>
      </trkpt>
      <trkpt lon="13.102877183387" lat="47.871986274121">
          <ele>575</ele>
          <time>2009-04-20T12:03:00Z</time>
      </trkpt>
      <trkpt lon="13.103230312834" lat="47.872402603094">
          <ele>580</ele>
          <time>2009-04-20T12:03:41Z</time>
      </trkpt>
      <trkpt lon="13.103622166659" lat="47.872794792195">
          <ele>589</ele>
          <time>2009-04-20T12:04:12Z</time>
      </trkpt>
      <trkpt lon="13.103955263365" lat="47.873209360969">
          <ele>595</ele>
          <time>2009-04-20T12:04:44Z</time>
      </trkpt>
      <trkpt lon="13.104149555807" lat="47.873654691316">
          <ele>599</ele>
          <time>2009-04-20T12:05:16Z</time>
      </trkpt>
      <trkpt lon="13.104358768031" lat="47.874116534006">
          <ele>595</ele>
          <time>2009-04-20T12:05:44Z</time>
      </trkpt>
      <trkpt lon="13.10452648985" lat="47.874573347556">
          <ele>592</ele>
          <time>2009-04-20T12:06:08Z</time>
      </trkpt>
      <trkpt lon="13.104618606931" lat="47.875042566318">
          <ele>589</ele>
          <time>2009-04-20T12:06:32Z</time>
      </trkpt>
      <trkpt lon="13.104685913588" lat="47.875509857243">
          <ele>590</ele>
          <time>2009-04-20T12:06:59Z</time>
      </trkpt>
      <trkpt lon="13.104696810058" lat="47.875992654683">
          <ele>593</ele>
          <time>2009-04-20T12:07:23Z</time>
      </trkpt>
      <trkpt lon="13.104656157843" lat="47.876490288086">
          <ele>592</ele>
          <time>2009-04-20T12:07:48Z</time>
      </trkpt>
      <trkpt lon="13.104760596317" lat="47.876977527933">
          <ele>590</ele>
          <time>2009-04-20T12:08:14Z</time>
      </trkpt>
      <trkpt lon="13.105030912592" lat="47.877419170244">
          <ele>587</ele>
          <time>2009-04-20T12:08:40Z</time>
      </trkpt>
      <trkpt lon="13.105147672459" lat="47.877875983794">
          <ele>593</ele>
          <time>2009-04-20T12:09:10Z</time>
      </trkpt>
      <trkpt lon="13.105262755946" lat="47.878328354937">
          <ele>589</ele>
          <time>2009-04-20T12:09:40Z</time>
      </trkpt>
      <trkpt lon="13.105361913823" lat="47.878802435201">
          <ele>589</ele>
          <time>2009-04-20T12:10:12Z</time>
      </trkpt>
      <trkpt lon="13.105457467483" lat="47.879258662018">
          <ele>590</ele>
          <time>2009-04-20T12:10:40Z</time>
      </trkpt>
      <trkpt lon="13.105555032799" lat="47.879725701486">
          <ele>590</ele>
          <time>2009-04-20T12:11:04Z</time>
      </trkpt>
      <trkpt lon="13.105653436305" lat="47.880186705986">
          <ele>586</ele>
          <time>2009-04-20T12:11:27Z</time>
      </trkpt>
      <trkpt lon="13.105769609439" lat="47.880659612784">
          <ele>585</ele>
          <time>2009-04-20T12:11:50Z</time>
      </trkpt>
      <trkpt lon="13.106026766131" lat="47.881093040833">
          <ele>581</ele>
          <time>2009-04-20T12:12:12Z</time>
      </trkpt>
      <trkpt lon="13.106384673261" lat="47.881503251019">
          <ele>574</ele>
          <time>2009-04-20T12:12:49Z</time>
      </trkpt>
      <trkpt lon="13.106939219765" lat="47.881547172175">
          <ele>588</ele>
          <time>2009-04-20T12:13:49Z</time>
      </trkpt>
      <trkpt lon="13.106922791241" lat="47.88156938421">
          <ele>585</ele>
          <time>2009-04-20T12:14:50Z</time>
      </trkpt>
      <trkpt lon="13.106935028815" lat="47.881468382315">
          <ele>583</ele>
          <time>2009-04-20T12:15:51Z</time>
      </trkpt>
      <trkpt lon="13.107085148644" lat="47.881461509157">
          <ele>580</ele>
          <time>2009-04-20T12:16:52Z</time>
      </trkpt>
      <trkpt lon="13.107040976031" lat="47.881441392597">
          <ele>578</ele>
          <time>2009-04-20T12:17:53Z</time>
      </trkpt>
      <trkpt lon="13.107002754567" lat="47.881550441116">
          <ele>588</ele>
          <time>2009-04-20T12:18:53Z</time>
      </trkpt>
      <trkpt lon="13.106591287096" lat="47.881721012781">
          <ele>589</ele>
          <time>2009-04-20T12:19:54Z</time>
      </trkpt>
      <trkpt lon="13.106929329123" lat="47.881568043106">
          <ele>589</ele>
          <time>2009-04-20T12:20:55Z</time>
      </trkpt>
      <trkpt lon="13.106946428199" lat="47.881514231308">
          <ele>592</ele>
          <time>2009-04-20T12:21:56Z</time>
      </trkpt>
      <trkpt lon="13.10698909207" lat="47.881572317875">
          <ele>585</ele>
          <time>2009-04-20T12:22:57Z</time>
      </trkpt>
      <trkpt lon="13.106938213937" lat="47.881513476937">
          <ele>586</ele>
          <time>2009-04-20T12:23:58Z</time>
      </trkpt>
      <trkpt lon="13.107065534998" lat="47.881372493379">
          <ele>585</ele>
          <time>2009-04-20T12:24:59Z</time>
      </trkpt>
      <trkpt lon="13.106978447057" lat="47.881447259927">
          <ele>586</ele>
          <time>2009-04-20T12:26:00Z</time>
      </trkpt>
      <trkpt lon="13.106959168687" lat="47.88153334204">
          <ele>588</ele>
          <time>2009-04-20T12:27:01Z</time>
      </trkpt>
      <trkpt lon="13.106878953904" lat="47.881501155544">
          <ele>587</ele>
          <time>2009-04-20T12:28:02Z</time>
      </trkpt>
      <trkpt lon="13.106914660798" lat="47.881520098638">
          <ele>589</ele>
          <time>2009-04-20T12:29:03Z</time>
      </trkpt>
      <trkpt lon="13.107009627725" lat="47.881465783926">
          <ele>583</ele>
          <time>2009-04-20T12:30:03Z</time>
      </trkpt>
      <trkpt lon="13.106892448763" lat="47.881593607901">
          <ele>583</ele>
          <time>2009-04-20T12:30:32Z</time>
      </trkpt>
      <trkpt lon="13.106899321921" lat="47.881581286508">
          <ele>585</ele>
          <time>2009-04-20T12:31:32Z</time>
      </trkpt>
      <trkpt lon="13.106743670038" lat="47.88167415796">
          <ele>589</ele>
          <time>2009-04-20T12:32:33Z</time>
      </trkpt>
      <trkpt lon="13.107207356746" lat="47.882056791695">
          <ele>593</ele>
          <time>2009-04-20T12:33:02Z</time>
      </trkpt>
      <trkpt lon="13.107838262359" lat="47.882299112424">
          <ele>590</ele>
          <time>2009-04-20T12:33:25Z</time>
      </trkpt>
      <trkpt lon="13.108453158543" lat="47.882516622729">
          <ele>589</ele>
          <time>2009-04-20T12:33:47Z</time>
      </trkpt>
      <trkpt lon="13.109160590903" lat="47.882645787808">
          <ele>593</ele>
          <time>2009-04-20T12:34:08Z</time>
      </trkpt>
      <trkpt lon="13.1097190769" lat="47.882967233673">
          <ele>592</ele>
          <time>2009-04-20T12:34:32Z</time>
      </trkpt>
      <trkpt lon="13.110196090829" lat="47.883338132748">
          <ele>590</ele>
          <time>2009-04-20T12:34:57Z</time>
      </trkpt>
      <trkpt lon="13.110696574078" lat="47.883684891951">
          <ele>586</ele>
          <time>2009-04-20T12:35:23Z</time>
      </trkpt>
      <trkpt lon="13.111368131906" lat="47.883790503891">
          <ele>584</ele>
          <time>2009-04-20T12:36:05Z</time>
      </trkpt>
      <trkpt lon="13.111768870545" lat="47.884175819834">
          <ele>532</ele>
          <time>2009-04-20T12:36:37Z</time>
      </trkpt>
      <trkpt lon="13.111867693146" lat="47.884657527627">
          <ele>536</ele>
          <time>2009-04-20T12:36:52Z</time>
      </trkpt>
      <trkpt lon="13.111927623731" lat="47.885132613719">
          <ele>551</ele>
          <time>2009-04-20T12:37:04Z</time>
      </trkpt>
      <trkpt lon="13.112421066184" lat="47.885482725682">
          <ele>556</ele>
          <time>2009-04-20T12:37:28Z</time>
      </trkpt>
      <trkpt lon="13.113093881297" lat="47.885327492894">
          <ele>581</ele>
          <time>2009-04-20T12:37:43Z</time>
      </trkpt>
      <trkpt lon="13.113612972364" lat="47.885019038974">
          <ele>582</ele>
          <time>2009-04-20T12:38:12Z</time>
      </trkpt>
      <trkpt lon="13.113928634718" lat="47.884603799648">
          <ele>579</ele>
          <time>2009-04-20T12:38:45Z</time>
      </trkpt>
      <trkpt lon="13.114192999844" lat="47.884169281952">
          <ele>569</ele>
          <time>2009-04-20T12:39:27Z</time>
      </trkpt>
      <trkpt lon="13.114377988377" lat="47.883724705976">
          <ele>574</ele>
          <time>2009-04-20T12:39:45Z</time>
      </trkpt>
      <trkpt lon="13.114430291433" lat="47.883234951559">
          <ele>580</ele>
          <time>2009-04-20T12:40:08Z</time>
      </trkpt>
      <trkpt lon="13.114458957531" lat="47.882775371982">
          <ele>585</ele>
          <time>2009-04-20T12:40:28Z</time>
      </trkpt>
      <trkpt lon="13.114453593115" lat="47.882307745781">
          <ele>583</ele>
          <time>2009-04-20T12:40:52Z</time>
      </trkpt>
      <trkpt lon="13.114236837181" lat="47.88183425225">
          <ele>583</ele>
          <time>2009-04-20T12:41:16Z</time>
      </trkpt>
      <trkpt lon="13.11392511432" lat="47.881387077885">
          <ele>582</ele>
          <time>2009-04-20T12:41:40Z</time>
      </trkpt>
      <trkpt lon="13.113520017093" lat="47.88099270949">
          <ele>584</ele>
          <time>2009-04-20T12:42:08Z</time>
      </trkpt>
      <trkpt lon="13.113595873288" lat="47.880518042493">
          <ele>595</ele>
          <time>2009-04-20T12:42:34Z</time>
      </trkpt>
      <trkpt lon="13.114015471202" lat="47.880128870876">
          <ele>595</ele>
          <time>2009-04-20T12:43:04Z</time>
      </trkpt>
      <trkpt lon="13.114237507733" lat="47.879635428423">
          <ele>566</ele>
          <time>2009-04-20T12:43:39Z</time>
      </trkpt>
      <trkpt lon="13.114468345259" lat="47.879183224918">
          <ele>557</ele>
          <time>2009-04-20T12:44:03Z</time>
      </trkpt>
      <trkpt lon="13.114900599842" lat="47.878785000849">
          <ele>564</ele>
          <time>2009-04-20T12:44:27Z</time>
      </trkpt>
      <trkpt lon="13.115468725024" lat="47.878438241646">
          <ele>569</ele>
          <time>2009-04-20T12:44:47Z</time>
      </trkpt>
      <trkpt lon="13.115978009268" lat="47.878058457757">
          <ele>564</ele>
          <time>2009-04-20T12:45:13Z</time>
      </trkpt>
      <trkpt lon="13.116658535729" lat="47.877963155554">
          <ele>560</ele>
          <time>2009-04-20T12:45:43Z</time>
      </trkpt>
      <trkpt lon="13.117089365389" lat="47.87834905823">
          <ele>555</ele>
          <time>2009-04-20T12:46:07Z</time>
      </trkpt>
      <trkpt lon="13.117559087065" lat="47.878697242356">
          <ele>557</ele>
          <time>2009-04-20T12:46:30Z</time>
      </trkpt>
      <trkpt lon="13.118221592441" lat="47.878939311628">
          <ele>556</ele>
          <time>2009-04-20T12:46:51Z</time>
      </trkpt>
      <trkpt lon="13.118925420584" lat="47.879008881398">
          <ele>537</ele>
          <time>2009-04-20T12:47:29Z</time>
      </trkpt>
      <trkpt lon="13.119648527097" lat="47.878880805966">
          <ele>535</ele>
          <time>2009-04-20T12:48:00Z</time>
      </trkpt>
      <trkpt lon="13.120280103262" lat="47.878690285379">
          <ele>539</ele>
          <time>2009-04-20T12:48:24Z</time>
      </trkpt>
      <trkpt lon="13.12091645711" lat="47.878500854439">
          <ele>551</ele>
          <time>2009-04-20T12:48:43Z</time>
      </trkpt>
      <trkpt lon="13.121424484069" lat="47.878182677515">
          <ele>549</ele>
          <time>2009-04-20T12:49:08Z</time>
      </trkpt>
      <trkpt lon="13.121962434411" lat="47.87789559744">
          <ele>555</ele>
          <time>2009-04-20T12:49:28Z</time>
      </trkpt>
      <trkpt lon="13.122301482266" lat="47.877490500213">
          <ele>563</ele>
          <time>2009-04-20T12:49:52Z</time>
      </trkpt>
      <trkpt lon="13.12244363929" lat="47.877040559821">
          <ele>566</ele>
          <time>2009-04-20T12:50:26Z</time>
      </trkpt>
      <trkpt lon="13.122499546563" lat="47.876576202561">
          <ele>530</ele>
          <time>2009-04-20T12:51:04Z</time>
      </trkpt>
      <trkpt lon="13.122341715386" lat="47.876105139781">
          <ele>559</ele>
          <time>2009-04-20T12:51:33Z</time>
      </trkpt>
      <trkpt lon="13.122230068478" lat="47.875646566032">
          <ele>538</ele>
          <time>2009-04-20T12:52:19Z</time>
      </trkpt>
      <trkpt lon="13.121929325906" lat="47.875222106616">
          <ele>535</ele>
          <time>2009-04-20T12:52:50Z</time>
      </trkpt>
      <trkpt lon="13.121487851233" lat="47.874848944428">
          <ele>576</ele>
          <time>2009-04-20T12:53:16Z</time>
      </trkpt>
      <trkpt lon="13.121326499658" lat="47.874376121449">
          <ele>579</ele>
          <time>2009-04-20T12:53:45Z</time>
      </trkpt>
      <trkpt lon="13.121278136095" lat="47.873918134433">
          <ele>585</ele>
          <time>2009-04-20T12:54:11Z</time>
      </trkpt>
      <trkpt lon="13.121273106955" lat="47.87344899949">
          <ele>584</ele>
          <time>2009-04-20T12:54:41Z</time>
      </trkpt>
      <trkpt lon="13.121279728656" lat="47.872970728276">
          <ele>585</ele>
          <time>2009-04-20T12:55:10Z</time>
      </trkpt>
      <trkpt lon="13.121244776133" lat="47.872506119559">
          <ele>586</ele>
          <time>2009-04-20T12:55:39Z</time>
      </trkpt>
      <trkpt lon="13.120974627496" lat="47.872067578551">
          <ele>588</ele>
          <time>2009-04-20T12:56:12Z</time>
      </trkpt>
      <trkpt lon="13.120626024275" lat="47.871653512691">
          <ele>582</ele>
          <time>2009-04-20T12:56:42Z</time>
      </trkpt>
      <trkpt lon="13.120388984143" lat="47.871207344154">
          <ele>588</ele>
          <time>2009-04-20T12:57:08Z</time>
      </trkpt>
      <trkpt lon="13.120252023897" lat="47.870726390732">
          <ele>588</ele>
          <time>2009-04-20T12:57:36Z</time>
      </trkpt>
      <trkpt lon="13.120272140457" lat="47.870248957708">
          <ele>592</ele>
          <time>2009-04-20T12:58:03Z</time>
      </trkpt>
      <trkpt lon="13.120352271421" lat="47.869789713407">
          <ele>599</ele>
          <time>2009-04-20T12:58:31Z</time>
      </trkpt>
      <trkpt lon="13.120448914728" lat="47.869335414427">
          <ele>602</ele>
          <time>2009-04-20T12:58:56Z</time>
      </trkpt>
      <trkpt lon="13.120414213662" lat="47.868864435466">
          <ele>599</ele>
          <time>2009-04-20T12:59:25Z</time>
      </trkpt>
      <trkpt lon="13.120479927758" lat="47.868374178135">
          <ele>600</ele>
          <time>2009-04-20T12:59:55Z</time>
      </trkpt>
      <trkpt lon="13.120117745859" lat="47.867951395099">
          <ele>576</ele>
          <time>2009-04-20T13:00:34Z</time>
      </trkpt>
      <trkpt lon="13.119726311129" lat="47.867567168803">
          <ele>557</ele>
          <time>2009-04-20T13:01:11Z</time>
      </trkpt>
      <trkpt lon="13.119730334441" lat="47.867098285317">
          <ele>558</ele>
          <time>2009-04-20T13:01:38Z</time>
      </trkpt>
      <trkpt lon="13.119692783529" lat="47.866625546157">
          <ele>602</ele>
          <time>2009-04-20T13:02:00Z</time>
      </trkpt>
      <trkpt lon="13.119843741548" lat="47.866157165585">
          <ele>605</ele>
          <time>2009-04-20T13:02:22Z</time>
      </trkpt>
      <trkpt lon="13.12002797571" lat="47.865689623203">
          <ele>606</ele>
          <time>2009-04-20T13:02:46Z</time>
      </trkpt>
      <trkpt lon="13.120160158273" lat="47.865209340333">
          <ele>607</ele>
          <time>2009-04-20T13:03:12Z</time>
      </trkpt>
      <trkpt lon="13.120303824039" lat="47.864726459074">
          <ele>606</ele>
          <time>2009-04-20T13:03:40Z</time>
      </trkpt>
      <trkpt lon="13.120155129133" lat="47.864249361326">
          <ele>602</ele>
          <time>2009-04-20T13:04:09Z</time>
      </trkpt>
      <trkpt lon="13.119664704164" lat="47.863882150287">
          <ele>600</ele>
          <time>2009-04-20T13:04:38Z</time>
      </trkpt>
      <trkpt lon="13.119024075547" lat="47.863667154552">
          <ele>608</ele>
          <time>2009-04-20T13:05:07Z</time>
      </trkpt>
      <trkpt lon="13.118520490995" lat="47.863354174406">
          <ele>612</ele>
          <time>2009-04-20T13:05:37Z</time>
      </trkpt>
      <trkpt lon="13.118158225277" lat="47.862930720818">
          <ele>614</ele>
          <time>2009-04-20T13:06:09Z</time>
      </trkpt>
      <trkpt lon="13.117645252997" lat="47.862621512527">
          <ele>622</ele>
          <time>2009-04-20T13:06:40Z</time>
      </trkpt>
      <trkpt lon="13.117343672235" lat="47.862384975309">
          <ele>619</ele>
          <time>2009-04-20T13:07:41Z</time>
      </trkpt>
      <trkpt lon="13.11696690583" lat="47.861988008525">
          <ele>621</ele>
          <time>2009-04-20T13:08:12Z</time>
      </trkpt>
      <trkpt lon="13.116513361221" lat="47.861614427242">
          <ele>625</ele>
          <time>2009-04-20T13:08:38Z</time>
      </trkpt>
      <trkpt lon="13.115956551604" lat="47.861314103765">
          <ele>630</ele>
          <time>2009-04-20T13:09:05Z</time>
      </trkpt>
      <trkpt lon="13.115404268213" lat="47.861032388106">
          <ele>628</ele>
          <time>2009-04-20T13:09:29Z</time>
      </trkpt>
      <trkpt lon="13.114835640117" lat="47.860722257806">
          <ele>633</ele>
          <time>2009-04-20T13:09:56Z</time>
      </trkpt>
      <trkpt lon="13.114326439692" lat="47.860413384791">
          <ele>627</ele>
          <time>2009-04-20T13:10:26Z</time>
      </trkpt>
      <trkpt lon="13.113872056893" lat="47.860066038855">
          <ele>618</ele>
          <time>2009-04-20T13:10:51Z</time>
      </trkpt>
      <trkpt lon="13.113447597477" lat="47.85965909761">
          <ele>613</ele>
          <time>2009-04-20T13:11:15Z</time>
      </trkpt>
      <trkpt lon="13.112890452584" lat="47.85934393817">
          <ele>608</ele>
          <time>2009-04-20T13:11:40Z</time>
      </trkpt>
      <trkpt lon="13.112273544744" lat="47.8591151123">
          <ele>609</ele>
          <time>2009-04-20T13:12:08Z</time>
      </trkpt>
      <trkpt lon="13.111656636904" lat="47.858882346937">
          <ele>615</ele>
          <time>2009-04-20T13:12:35Z</time>
      </trkpt>
      <trkpt lon="13.111149364316" lat="47.858557464493">
          <ele>624</ele>
          <time>2009-04-20T13:12:59Z</time>
      </trkpt>
      <trkpt lon="13.110557769814" lat="47.858279688327">
          <ele>625</ele>
          <time>2009-04-20T13:13:26Z</time>
      </trkpt>
      <trkpt lon="13.109884367968" lat="47.858127556842">
          <ele>626</ele>
          <time>2009-04-20T13:13:54Z</time>
      </trkpt>
      <trkpt lon="13.109223287515" lat="47.857972575511">
          <ele>631</ele>
          <time>2009-04-20T13:14:24Z</time>
      </trkpt>
      <trkpt lon="13.108537731914" lat="47.85781172685">
          <ele>626</ele>
          <time>2009-04-20T13:14:56Z</time>
      </trkpt>
      <trkpt lon="13.107848823553" lat="47.857750455161">
          <ele>626</ele>
          <time>2009-04-20T13:15:16Z</time>
      </trkpt>
      <trkpt lon="13.107152958215" lat="47.857664875962">
          <ele>625</ele>
          <time>2009-04-20T13:15:37Z</time>
      </trkpt>
      <trkpt lon="13.106431276625" lat="47.857628749973">
          <ele>626</ele>
          <time>2009-04-20T13:16:02Z</time>
      </trkpt>
      <trkpt lon="13.105704230619" lat="47.857636126045">
          <ele>626</ele>
          <time>2009-04-20T13:16:27Z</time>
      </trkpt>
      <trkpt lon="13.105008113824" lat="47.857685579255">
          <ele>625</ele>
          <time>2009-04-20T13:16:50Z</time>
      </trkpt>
      <trkpt lon="13.104344015887" lat="47.857807703538">
          <ele>623</ele>
          <time>2009-04-20T13:17:09Z</time>
      </trkpt>
      <trkpt lon="13.103814447445" lat="47.858139794416">
          <ele>618</ele>
          <time>2009-04-20T13:17:31Z</time>
      </trkpt>
      <trkpt lon="13.103183793289" lat="47.858383959163">
          <ele>616</ele>
          <time>2009-04-20T13:17:54Z</time>
      </trkpt>
      <trkpt lon="13.102494633471" lat="47.858414217822">
          <ele>608</ele>
          <time>2009-04-20T13:18:17Z</time>
      </trkpt>
      <trkpt lon="13.101809413146" lat="47.858493678234">
          <ele>602</ele>
          <time>2009-04-20T13:18:39Z</time>
      </trkpt>
      <trkpt lon="13.101093766524" lat="47.858420504247">
          <ele>603</ele>
          <time>2009-04-20T13:19:04Z</time>
      </trkpt>
      <trkpt lon="13.100472751553" lat="47.858205843788">
          <ele>594</ele>
          <time>2009-04-20T13:19:34Z</time>
      </trkpt>
      <trkpt lon="13.099829859823" lat="47.858413463451">
          <ele>615</ele>
          <time>2009-04-20T13:20:00Z</time>
      </trkpt>
      <trkpt lon="13.099215298915" lat="47.858194192947">
          <ele>609</ele>
          <time>2009-04-20T13:20:31Z</time>
      </trkpt>
      <trkpt lon="13.098603084939" lat="47.857982214696">
          <ele>608</ele>
          <time>2009-04-20T13:20:54Z</time>
      </trkpt>
      <trkpt lon="13.097906968144" lat="47.857771074635">
          <ele>578</ele>
          <time>2009-04-20T13:21:22Z</time>
      </trkpt>
      <trkpt lon="13.097215293756" lat="47.857568065017">
          <ele>571</ele>
          <time>2009-04-20T13:21:46Z</time>
      </trkpt>
      <trkpt lon="13.09654943562" lat="47.857425740355">
          <ele>584</ele>
          <time>2009-04-20T13:22:11Z</time>
      </trkpt>
      <trkpt lon="13.095906879166" lat="47.857261790391">
          <ele>568</ele>
          <time>2009-04-20T13:22:34Z</time>
      </trkpt>
      <trkpt lon="13.095248145645" lat="47.85711100001">
          <ele>590</ele>
          <time>2009-04-20T13:22:50Z</time>
      </trkpt>
      <trkpt lon="13.094578180378" lat="47.856917294301">
          <ele>542</ele>
          <time>2009-04-20T13:23:32Z</time>
      </trkpt>
      <trkpt lon="13.093873765502" lat="47.856776226924">
          <ele>537</ele>
          <time>2009-04-20T13:23:52Z</time>
      </trkpt>
      <trkpt lon="13.09321176304" lat="47.85664077542">
          <ele>537</ele>
          <time>2009-04-20T13:24:08Z</time>
      </trkpt>
      <trkpt lon="13.092586640938" lat="47.856389066963">
          <ele>561</ele>
          <time>2009-04-20T13:24:22Z</time>
      </trkpt>
      <trkpt lon="13.091987670364" lat="47.856119672697">
          <ele>595</ele>
          <time>2009-04-20T13:24:38Z</time>
      </trkpt>
      <trkpt lon="13.09138953798" lat="47.855854217924">
          <ele>577</ele>
          <time>2009-04-20T13:25:08Z</time>
      </trkpt>
      <trkpt lon="13.090853264018" lat="47.855522462322">
          <ele>614</ele>
          <time>2009-04-20T13:25:33Z</time>
      </trkpt>
      <trkpt lon="13.09021271922" lat="47.855321129084">
          <ele>609</ele>
          <time>2009-04-20T13:25:57Z</time>
      </trkpt>
      <trkpt lon="13.089892363002" lat="47.854903375188">
          <ele>605</ele>
          <time>2009-04-20T13:26:16Z</time>
      </trkpt>
      <trkpt lon="13.089493971295" lat="47.854520489996">
          <ele>604</ele>
          <time>2009-04-20T13:26:36Z</time>
      </trkpt>
      <trkpt lon="13.089078731969" lat="47.854634483836">
          <ele>562</ele>
          <time>2009-04-20T13:27:36Z</time>
      </trkpt>
      <trkpt lon="13.088988542725" lat="47.855089537187">
          <ele>550</ele>
          <time>2009-04-20T13:28:04Z</time>
      </trkpt>
      <trkpt lon="13.08906188435" lat="47.855586500038">
          <ele>547</ele>
          <time>2009-04-20T13:28:31Z</time>
      </trkpt>
      <trkpt lon="13.089112091931" lat="47.856050102927">
          <ele>502</ele>
          <time>2009-04-20T13:28:56Z</time>
      </trkpt>
      <trkpt lon="13.089021315954" lat="47.856547317235">
          <ele>529</ele>
          <time>2009-04-20T13:29:10Z</time>
      </trkpt>
      <trkpt lon="13.088517312307" lat="47.856871612946">
          <ele>542</ele>
          <time>2009-04-20T13:29:41Z</time>
      </trkpt>
      <trkpt lon="13.088467523821" lat="47.857346196124">
          <ele>538</ele>
          <time>2009-04-20T13:30:03Z</time>
      </trkpt>
      <trkpt lon="13.088739600295" lat="47.857768811522">
          <ele>529</ele>
          <time>2009-04-20T13:30:26Z</time>
      </trkpt>
      <trkpt lon="13.089435465633" lat="47.85778071382">
          <ele>525</ele>
          <time>2009-04-20T13:30:53Z</time>
      </trkpt>
      <trkpt lon="13.090117752293" lat="47.857811056298">
          <ele>517</ele>
          <time>2009-04-20T13:31:23Z</time>
      </trkpt>
      <trkpt lon="13.09064522526" lat="47.85810593154">
          <ele>516</ele>
          <time>2009-04-20T13:31:47Z</time>
      </trkpt>
      <trkpt lon="13.091219469229" lat="47.858382450421">
          <ele>516</ele>
          <time>2009-04-20T13:32:14Z</time>
      </trkpt>
      <trkpt lon="13.091791366266" lat="47.858676236016">
          <ele>514</ele>
          <time>2009-04-20T13:32:42Z</time>
      </trkpt>
      <trkpt lon="13.09209948491" lat="47.859102371812">
          <ele>518</ele>
          <time>2009-04-20T13:33:07Z</time>
      </trkpt>
      <trkpt lon="13.092298471216" lat="47.859552815118">
          <ele>525</ele>
          <time>2009-04-20T13:33:41Z</time>
      </trkpt>
      <trkpt lon="13.092849245865" lat="47.859834782234">
          <ele>538</ele>
          <time>2009-04-20T13:34:19Z</time>
      </trkpt>
      <trkpt lon="13.09303741952" lat="47.859893958448">
          <ele>525</ele>
          <time>2009-04-20T13:35:14Z</time>
      </trkpt>
   </trkseg>
</trk>
</gpx>
